Time,TemperatureF,DewpointF,PressureIn,WindDirection,WindDirectionDegrees,WindSpeedMPH,WindSpeedGustMPH,Humidity,HourlyPrecipIn,Conditions,Clouds,dailyrainin,SolarRadiationWatts/m^2,SoftwareType,DateUTC
2013-07-25 00:00:00,52.6,47.9,30.01,SSE,150,0.0,0.0,84,0.00,,,0.00,0,Wunderground v.1.15,2013-07-25 04:00:00,
2013-07-25 00:10:00,52.5,48.1,30.01,SSE,150,0.0,0.0,85,0.00,,,0.00,0,Wunderground v.1.15,2013-07-25 04:10:00,
2013-07-25 00:15:00,52.3,47.9,30.01,SSE,150,0.0,0.0,85,0.00,,,0.00,0,Wunderground v.1.15,2013-07-25 04:15:00,
2013-07-25 00:20:00,52.2,47.8,30.01,SSE,150,0.0,0.0,85,0.00,,,0.00,0,Wunderground v.1.15,2013-07-25 04:20:00,
2013-07-25 00:25:00,52.0,47.9,30.01,SSE,150,0.0,0.0,86,0.00,,,0.00,0,Wunderground v.1.15,2013-07-25 04:25:00,
2013-07-25 00:35:00,51.7,47.6,30.01,SSE,150,0.0,0.0,86,0.00,,,0.00,0,Wunderground v.1.15,2013-07-25 04:35:00,
2013-07-25 00:40:00,51.7,47.6,30.01,SSE,150,0.0,0.0,86,0.00,,,0.00,0,Wunderground v.1.15,2013-07-25 04:40:00,
2013-07-25 00:50:00,51.6,47.9,30.02,SSE,150,0.0,0.0,87,0.00,,,0.00,0,Wunderground v.1.15,2013-07-25 04:50:00,
2013-07-25 01:00:00,51.4,47.7,30.01,SSE,150,0.0,0.0,87,0.00,,,0.00,0,Wunderground v.1.15,2013-07-25 05:00:00,
2013-07-25 01:10:00,51.1,47.4,30.01,SSE,150,0.0,0.0,87,0.00,,,0.00,0,Wunderground v.1.15,2013-07-25 05:10:00,
2013-07-25 01:15:00,51.0,47.3,30.02,SSE,150,0.0,0.0,87,0.00,,,0.00,0,Wunderground v.1.15,2013-07-25 05:15:00,
2013-07-25 01:25:00,50.7,47.0,30.02,SSE,150,0.0,0.0,87,0.00,,,0.00,0,Wunderground v.1.15,2013-07-25 05:25:00,
2013-07-25 01:35:00,50.4,47.0,30.01,SSE,150,0.0,0.0,88,0.00,,,0.00,0,Wunderground v.1.15,2013-07-25 05:35:00,
2013-07-25 01:45:00,50.1,46.7,30.01,SSE,150,0.0,0.0,88,0.00,,,0.00,0,Wunderground v.1.15,2013-07-25 05:45:00,
2013-07-25 01:50:00,49.9,46.5,30.01,SSE,150,0.0,0.0,88,0.00,,,0.00,0,Wunderground v.1.15,2013-07-25 05:50:00,
2013-07-25 02:00:00,49.8,46.4,30.01,SSE,150,0.0,0.0,88,0.00,,,0.00,0,Wunderground v.1.15,2013-07-25 06:00:00,
2013-07-25 02:05:00,49.8,46.7,30.01,SSE,150,0.0,0.0,89,0.00,,,0.00,0,Wunderground v.1.15,2013-07-25 06:05:00,
2013-07-25 02:15:00,49.6,46.5,30.01,SSE,150,0.0,0.0,89,0.00,,,0.00,0,Wunderground v.1.15,2013-07-25 06:15:00,
2013-07-25 02:25:00,49.6,46.5,30.01,SSE,150,0.0,0.0,89,0.00,,,0.00,0,Wunderground v.1.15,2013-07-25 06:25:00,
2013-07-25 02:35:00,49.6,46.5,30.01,SSE,150,0.0,0.0,89,0.00,,,0.00,0,Wunderground v.1.15,2013-07-25 06:35:00,
2013-07-25 02:45:00,49.5,46.4,30.01,SSE,150,0.0,0.0,89,0.00,,,0.00,0,Wunderground v.1.15,2013-07-25 06:45:00,
2013-07-25 02:50:00,49.5,46.4,30.01,SSE,150,0.0,0.0,89,0.00,,,0.00,0,Wunderground v.1.15,2013-07-25 06:50:00,
2013-07-25 03:00:00,49.4,46.3,30.02,SSE,150,0.0,0.0,89,0.00,,,0.00,0,Wunderground v.1.15,2013-07-25 07:00:00,
2013-07-25 03:10:00,49.2,46.1,30.02,SSE,150,0.0,0.0,89,0.00,,,0.00,0,Wunderground v.1.15,2013-07-25 07:10:00,
2013-07-25 03:20:00,49.1,46.0,30.02,SSE,150,0.0,0.0,89,0.00,,,0.00,0,Wunderground v.1.15,2013-07-25 07:20:00,
2013-07-25 03:25:00,48.9,45.5,30.02,SSE,150,0.0,0.0,88,0.00,,,0.00,0,Wunderground v.1.15,2013-07-25 07:25:00,
2013-07-25 03:35:00,48.8,45.4,30.02,SSE,150,0.0,0.0,88,0.00,,,0.00,0,Wunderground v.1.15,2013-07-25 07:35:00,
2013-07-25 03:40:00,48.6,45.5,30.02,SSE,150,0.0,0.0,89,0.00,,,0.00,0,Wunderground v.1.15,2013-07-25 07:40:00,
2013-07-25 03:50:00,48.3,44.9,30.02,SSE,150,0.0,0.0,88,0.00,,,0.00,0,Wunderground v.1.15,2013-07-25 07:50:00,
2013-07-25 04:00:00,48.2,44.8,30.02,SSE,150,0.0,1.0,88,0.00,,,0.00,0,Wunderground v.1.15,2013-07-25 08:00:00,
2013-07-25 04:06:00,48.0,44.6,30.02,SSE,150,0.0,1.0,88,0.00,,,0.00,0,Wunderground v.1.15,2013-07-25 08:06:00,
2013-07-25 04:15:00,47.9,44.8,30.02,SSE,150,0.0,0.0,89,0.00,,,0.00,0,Wunderground v.1.15,2013-07-25 08:15:00,
2013-07-25 04:25:00,47.7,44.6,30.02,SSE,150,0.0,0.0,89,0.00,,,0.00,0,Wunderground v.1.15,2013-07-25 08:25:00,
2013-07-25 04:35:00,47.6,44.5,30.02,SSE,150,0.0,0.0,89,0.00,,,0.00,0,Wunderground v.1.15,2013-07-25 08:35:00,
2013-07-25 04:40:00,47.4,44.3,30.02,SSE,150,0.0,0.0,89,0.00,,,0.00,0,Wunderground v.1.15,2013-07-25 08:40:00,
2013-07-25 04:50:00,47.3,44.2,30.03,SSE,150,0.0,0.0,89,0.00,,,0.00,0,Wunderground v.1.15,2013-07-25 08:50:00,
2013-07-25 04:55:00,47.1,44.0,30.03,SSE,150,0.0,0.0,89,0.00,,,0.00,0,Wunderground v.1.15,2013-07-25 08:55:00,
2013-07-25 05:05:00,47.1,44.0,30.03,SSE,150,0.0,0.0,89,0.00,,,0.00,0,Wunderground v.1.15,2013-07-25 09:05:00,
2013-07-25 05:15:00,46.8,43.7,30.03,SSE,150,0.0,0.0,89,0.00,,,0.00,0,Wunderground v.1.15,2013-07-25 09:15:00,
2013-07-25 05:25:00,46.7,43.6,30.03,SSE,150,0.0,0.0,89,0.00,,,0.00,0,Wunderground v.1.15,2013-07-25 09:25:00,
2013-07-25 05:35:00,46.5,43.4,30.04,SSE,150,0.0,0.0,89,0.00,,,0.00,0,Wunderground v.1.15,2013-07-25 09:35:00,
2013-07-25 05:45:00,46.5,43.4,30.04,SSE,150,0.0,0.0,89,0.00,,,0.00,5,Wunderground v.1.15,2013-07-25 09:45:00,
2013-07-25 05:50:00,46.4,43.6,30.04,SSE,150,0.0,0.0,90,0.00,,,0.00,5,Wunderground v.1.15,2013-07-25 09:50:00,
2013-07-25 06:00:00,46.2,43.4,30.04,SSE,150,0.0,0.0,90,0.00,,,0.00,7,Wunderground v.1.15,2013-07-25 10:00:00,
2013-07-25 06:05:00,46.2,43.4,30.04,SSE,150,0.0,0.0,90,0.00,,,0.00,9,Wunderground v.1.15,2013-07-25 10:05:00,
2013-07-25 06:15:00,46.4,43.6,30.05,SSE,150,0.0,0.0,90,0.00,,,0.00,11,Wunderground v.1.15,2013-07-25 10:15:00,
2013-07-25 06:25:00,46.5,43.7,30.05,SSE,150,0.0,0.0,90,0.00,,,0.00,16,Wunderground v.1.15,2013-07-25 10:25:00,
2013-07-25 06:30:00,46.5,44.0,30.05,SSE,148,0.0,0.0,91,0.00,,,0.00,18,Wunderground v.1.15,2013-07-25 10:30:00,
2013-07-25 06:40:00,46.7,44.2,30.05,West,281,0.0,0.0,91,0.00,,,0.00,21,Wunderground v.1.15,2013-07-25 10:40:00,
2013-07-25 06:50:00,47.0,44.5,30.05,West,281,0.0,0.0,91,0.00,,,0.00,23,Wunderground v.1.15,2013-07-25 10:50:00,
2013-07-25 07:00:00,47.4,45.2,30.06,West,274,0.0,0.0,92,0.00,,,0.00,25,Wunderground v.1.15,2013-07-25 11:00:00,
2013-07-25 07:10:00,48.0,45.8,30.06,West,274,0.0,0.0,92,0.00,,,0.00,28,Wunderground v.1.15,2013-07-25 11:10:00,
2013-07-25 07:20:00,48.3,46.1,30.06,West,274,0.0,0.0,92,0.00,,,0.00,30,Wunderground v.1.15,2013-07-25 11:20:00,
2013-07-25 07:30:00,48.6,46.4,30.06,West,274,0.0,0.0,92,0.00,,,0.00,33,Wunderground v.1.15,2013-07-25 11:30:00,
2013-07-25 07:35:00,48.9,46.7,30.06,West,274,0.0,0.0,92,0.00,,,0.00,35,Wunderground v.1.15,2013-07-25 11:35:00,
2013-07-25 07:45:00,49.8,47.6,30.06,West,276,0.0,0.0,92,0.00,,,0.00,37,Wunderground v.1.15,2013-07-25 11:45:00,
2013-07-25 07:55:00,50.7,48.5,30.06,West,276,0.0,0.0,92,0.00,,,0.00,40,Wunderground v.1.15,2013-07-25 11:55:00,
2013-07-25 08:05:00,51.4,48.9,30.07,SSW,210,0.0,0.0,91,0.00,,,0.00,42,Wunderground v.1.15,2013-07-25 12:05:00,
2013-07-25 08:15:00,52.2,49.1,30.07,SSW,207,0.0,0.0,89,0.00,,,0.00,44,Wunderground v.1.15,2013-07-25 12:15:00,
2013-07-25 08:20:00,52.5,48.7,30.07,East,94,0.0,1.0,87,0.00,,,0.00,47,Wunderground v.1.15,2013-07-25 12:20:00,
2013-07-25 08:30:00,53.3,46.6,30.07,ESE,110,0.0,0.0,78,0.00,,,0.00,109,Wunderground v.1.15,2013-07-25 12:30:00,
2013-07-25 08:35:00,53.9,45.4,30.07,WNW,293,0.0,0.0,73,0.00,,,0.00,482,Wunderground v.1.15,2013-07-25 12:35:00,
2013-07-25 08:45:00,55.9,48.1,30.07,SSW,200,0.0,0.0,75,0.00,,,0.00,517,Wunderground v.1.15,2013-07-25 12:45:00,
2013-07-25 08:55:00,57.6,46.7,30.07,NE,39,0.0,0.0,67,0.00,,,0.00,575,Wunderground v.1.15,2013-07-25 12:55:00,
2013-07-25 09:05:00,58.9,45.9,30.07,ESE,117,0.0,0.0,62,0.00,,,0.00,610,Wunderground v.1.15,2013-07-25 13:05:00,
2013-07-25 09:15:00,59.9,45.1,30.08,ENE,72,0.0,0.0,58,0.00,,,0.00,638,Wunderground v.1.15,2013-07-25 13:15:00,
2013-07-25 09:25:00,60.7,45.4,30.08,North,352,0.0,0.0,57,0.00,,,0.00,666,Wunderground v.1.15,2013-07-25 13:25:00,
2013-07-25 09:30:00,60.9,46.9,30.09,North,355,0.0,0.0,60,0.00,,,0.00,680,Wunderground v.1.15,2013-07-25 13:30:00,
2013-07-25 09:40:00,61.2,46.3,30.09,SSW,209,0.0,0.0,58,0.00,,,0.00,705,Wunderground v.1.15,2013-07-25 13:40:00,
2013-07-25 09:50:00,62.0,46.6,30.08,SE,131,0.0,0.0,57,0.00,,,0.00,729,Wunderground v.1.15,2013-07-25 13:50:00,
2013-07-25 10:00:00,62.9,47.0,30.07,East,96,0.0,0.0,56,0.00,,,0.00,756,Wunderground v.1.15,2013-07-25 14:00:00,
2013-07-25 10:10:00,63.5,48.0,30.07,ESE,122,0.0,0.0,57,0.00,,,0.00,747,Wunderground v.1.15,2013-07-25 14:10:00,
2013-07-25 10:20:00,64.2,47.2,30.08,NW,307,0.0,0.0,54,0.00,,,0.00,708,Wunderground v.1.15,2013-07-25 14:20:00,
2013-07-25 10:30:00,64.0,47.0,30.08,NW,316,0.0,0.0,54,0.00,,,0.00,821,Wunderground v.1.15,2013-07-25 14:30:00,
2013-07-25 10:40:00,65.2,48.6,30.08,East,91,0.0,0.0,55,0.00,,,0.00,803,Wunderground v.1.15,2013-07-25 14:40:00,
2013-07-25 10:50:00,65.6,50.0,30.08,SSW,212,0.0,1.0,57,0.00,,,0.00,891,Wunderground v.1.15,2013-07-25 14:50:00,
2013-07-25 11:00:00,66.0,50.3,30.08,ESE,115,0.0,0.0,57,0.00,,,0.00,817,Wunderground v.1.15,2013-07-25 15:00:00,
2013-07-25 11:05:00,66.6,49.9,30.08,SSW,206,0.0,0.0,55,0.00,,,0.00,902,Wunderground v.1.15,2013-07-25 15:05:00,
2013-07-25 11:15:00,67.4,50.2,30.08,SSW,205,0.0,0.0,54,0.00,,,0.00,928,Wunderground v.1.15,2013-07-25 15:15:00,
2013-07-25 11:25:00,67.6,48.8,30.08,East,101,0.0,0.0,51,0.00,,,0.00,619,Wunderground v.1.15,2013-07-25 15:25:00,
2013-07-25 11:30:00,66.8,49.6,30.08,North,4,0.0,0.0,54,0.00,,,0.00,849,Wunderground v.1.15,2013-07-25 15:30:00,
2013-07-25 11:40:00,65.6,50.0,30.08,NW,314,0.0,0.0,57,0.00,,,0.00,930,Wunderground v.1.15,2013-07-25 15:40:00,
2013-07-25 11:45:00,66.1,49.0,30.08,ESE,110,0.0,0.0,54,0.00,,,0.00,1028,Wunderground v.1.15,2013-07-25 15:45:00,
2013-07-25 11:55:00,65.6,50.4,30.08,West,273,0.0,0.0,58,0.00,,,0.00,803,Wunderground v.1.15,2013-07-25 15:55:00,
2013-07-25 12:00:00,66.4,51.2,30.08,WSW,244,0.0,1.0,58,0.00,,,0.00,594,Wunderground v.1.15,2013-07-25 16:00:00,
2013-07-25 12:10:00,67.9,50.6,30.08,South,180,0.0,0.0,54,0.00,,,0.00,677,Wunderground v.1.15,2013-07-25 16:10:00,
2013-07-25 12:20:00,66.9,49.2,30.08,North,0,0.0,0.0,53,0.00,,,0.00,661,Wunderground v.1.15,2013-07-25 16:20:00,
2013-07-25 12:30:00,67.3,49.6,30.08,South,178,0.0,0.0,53,0.00,,,0.00,622,Wunderground v.1.15,2013-07-25 16:30:00,
2013-07-25 12:40:00,67.4,49.2,30.08,WNW,287,0.0,0.0,52,0.00,,,0.00,1037,Wunderground v.1.15,2013-07-25 16:40:00,
2013-07-25 12:50:00,67.8,50.5,30.07,East,84,0.0,0.0,54,0.00,,,0.00,650,Wunderground v.1.15,2013-07-25 16:50:00,
2013-07-25 12:55:00,67.9,50.1,30.07,ESE,119,0.0,0.0,53,0.00,,,0.00,798,Wunderground v.1.15,2013-07-25 16:55:00,
2013-07-25 13:05:00,69.9,52.5,30.07,NNW,338,0.0,2.0,54,0.00,,,0.00,953,Wunderground v.1.15,2013-07-25 17:05:00,
2013-07-25 13:15:00,69.6,51.7,30.07,NNW,336,0.0,0.0,53,0.00,,,0.00,649,Wunderground v.1.15,2013-07-25 17:15:00,
2013-07-25 13:25:00,69.3,50.9,30.07,West,266,0.0,0.0,52,0.00,,,0.00,617,Wunderground v.1.15,2013-07-25 17:25:00,
2013-07-25 13:30:00,69.1,50.7,30.07,SSW,203,0.0,0.0,52,0.00,,,0.00,789,Wunderground v.1.15,2013-07-25 17:30:00,
2013-07-25 13:40:00,69.8,53.4,30.07,SSW,195,0.0,0.0,56,0.00,,,0.00,919,Wunderground v.1.15,2013-07-25 17:40:00,
2013-07-25 13:50:00,70.1,54.2,30.07,WSW,241,0.0,0.0,57,0.00,,,0.00,963,Wunderground v.1.15,2013-07-25 17:50:00,
2013-07-25 14:00:00,69.9,52.5,30.07,South,189,0.0,0.0,54,0.00,,,0.00,900,Wunderground v.1.15,2013-07-25 18:00:00,
2013-07-25 14:10:00,70.3,52.9,30.07,East,86,0.0,0.0,54,0.00,,,0.00,951,Wunderground v.1.15,2013-07-25 18:10:00,
2013-07-25 14:20:00,70.1,53.2,30.07,SSW,205,0.0,0.0,55,0.00,,,0.00,935,Wunderground v.1.15,2013-07-25 18:20:00,
2013-07-25 14:25:00,70.3,52.4,30.07,NNW,329,0.0,0.0,53,0.00,,,0.00,911,Wunderground v.1.15,2013-07-25 18:25:00,
2013-07-25 14:35:00,70.8,52.3,30.07,East,98,0.0,0.0,52,0.00,,,0.00,765,Wunderground v.1.15,2013-07-25 18:35:00,
2013-07-25 14:40:00,70.4,53.0,30.07,South,191,0.0,1.0,54,0.00,,,0.00,793,Wunderground v.1.15,2013-07-25 18:40:00,
2013-07-25 14:50:00,70.1,54.6,30.07,SSW,201,0.0,1.0,58,0.00,,,0.00,886,Wunderground v.1.15,2013-07-25 18:50:00,
2013-07-25 14:55:00,70.6,52.6,30.07,South,184,0.0,1.0,53,0.00,,,0.00,719,Wunderground v.1.15,2013-07-25 18:55:00,
2013-07-25 15:06:00,71.5,55.0,30.06,South,184,0.0,0.0,56,0.00,,,0.00,830,Wunderground v.1.15,2013-07-25 19:06:00,
2013-07-25 15:15:00,71.5,53.5,30.06,North,352,0.0,2.0,53,0.00,,,0.00,752,Wunderground v.1.15,2013-07-25 19:15:00,
2013-07-25 15:25:00,70.8,55.3,30.06,NE,50,0.0,1.0,58,0.00,,,0.00,823,Wunderground v.1.15,2013-07-25 19:25:00,
2013-07-25 15:35:00,71.1,54.1,30.06,NNE,17,0.0,0.0,55,0.00,,,0.00,756,Wunderground v.1.15,2013-07-25 19:35:00,
2013-07-25 15:45:00,72.7,54.1,30.05,NNE,29,0.0,0.0,52,0.00,,,0.00,728,Wunderground v.1.15,2013-07-25 19:45:00,
2013-07-25 15:50:00,72.1,54.0,30.05,ENE,77,0.0,1.0,53,0.00,,,0.00,710,Wunderground v.1.15,2013-07-25 19:50:00,
2013-07-25 16:00:00,71.1,53.6,30.05,SSW,204,0.0,2.0,54,0.00,,,0.00,686,Wunderground v.1.15,2013-07-25 20:00:00,
2013-07-25 16:05:00,70.9,52.9,30.05,SW,218,0.0,2.0,53,0.00,,,0.00,673,Wunderground v.1.15,2013-07-25 20:05:00,
2013-07-25 16:15:00,71.6,52.5,30.05,SW,236,0.0,0.0,51,0.00,,,0.00,640,Wunderground v.1.15,2013-07-25 20:15:00,
2013-07-25 16:25:00,71.8,53.7,30.05,ESE,103,0.0,0.0,53,0.00,,,0.00,624,Wunderground v.1.15,2013-07-25 20:25:00,
2013-07-25 16:30:00,72.0,53.9,30.06,ESE,108,0.0,0.0,53,0.00,,,0.00,643,Wunderground v.1.15,2013-07-25 20:30:00,
2013-07-25 16:40:00,72.1,52.4,30.06,SSW,207,0.0,3.0,50,0.00,,,0.00,420,Wunderground v.1.15,2013-07-25 20:40:00,
2013-07-25 16:50:00,70.8,54.3,30.06,South,175,0.0,0.0,56,0.00,,,0.00,381,Wunderground v.1.15,2013-07-25 20:50:00,
2013-07-25 17:00:00,69.1,53.7,30.07,South,174,0.0,0.0,58,0.00,,,0.00,452,Wunderground v.1.15,2013-07-25 21:00:00,
2013-07-25 17:05:00,69.3,53.4,30.07,South,174,0.0,0.0,57,0.00,,,0.00,462,Wunderground v.1.15,2013-07-25 21:05:00,
2013-07-25 17:15:00,68.9,52.6,30.07,South,178,0.0,2.0,56,0.00,,,0.00,299,Wunderground v.1.15,2013-07-25 21:15:00,
2013-07-25 17:25:00,68.8,52.9,30.07,North,358,0.0,0.0,57,0.00,,,0.00,114,Wunderground v.1.15,2013-07-25 21:25:00,
2013-07-25 17:30:00,68.8,53.4,30.06,SSW,200,0.0,0.0,58,0.00,,,0.00,127,Wunderground v.1.15,2013-07-25 21:30:00,
2013-07-25 17:40:00,68.4,52.6,30.06,WSW,255,0.0,0.0,57,0.00,,,0.00,114,Wunderground v.1.15,2013-07-25 21:40:00,
2013-07-25 17:50:00,68.3,53.4,30.06,ENE,77,0.0,0.0,59,0.00,,,0.00,123,Wunderground v.1.15,2013-07-25 21:50:00,
2013-07-25 18:00:00,68.3,52.9,30.06,NE,39,0.0,1.0,58,0.00,,,0.00,105,Wunderground v.1.15,2013-07-25 22:00:00,
2013-07-25 18:10:00,68.1,53.7,30.06,SSE,167,0.0,0.0,60,0.00,,,0.00,79,Wunderground v.1.15,2013-07-25 22:10:00,
2013-07-25 18:20:00,67.8,53.4,30.06,ESE,113,0.0,0.0,60,0.00,,,0.00,91,Wunderground v.1.15,2013-07-25 22:20:00,
2013-07-25 18:25:00,67.8,53.4,30.06,ESE,108,0.0,0.0,60,0.00,,,0.00,86,Wunderground v.1.15,2013-07-25 22:25:00,
2013-07-25 18:35:00,67.6,53.7,30.06,SSW,198,0.0,0.0,61,0.00,,,0.00,93,Wunderground v.1.15,2013-07-25 22:35:00,
2013-07-25 18:40:00,67.6,53.2,30.06,SSW,198,0.0,0.0,60,0.00,,,0.00,77,Wunderground v.1.15,2013-07-25 22:40:00,
2013-07-25 18:50:00,67.4,53.0,30.06,SSE,162,0.0,0.0,60,0.00,,,0.00,79,Wunderground v.1.15,2013-07-25 22:50:00,
2013-07-25 19:00:00,67.3,53.8,30.07,SSE,162,0.0,0.0,62,0.00,,,0.00,58,Wunderground v.1.15,2013-07-25 23:00:00,
2013-07-25 19:05:00,67.1,53.2,30.07,East,100,0.0,0.0,61,0.00,,,0.00,49,Wunderground v.1.15,2013-07-25 23:05:00,
2013-07-25 19:15:00,66.8,54.2,30.07,East,101,0.0,0.0,64,0.00,,,0.00,33,Wunderground v.1.15,2013-07-25 23:15:00,
2013-07-25 19:20:00,66.4,53.4,30.07,ESE,116,0.0,0.0,63,0.00,,,0.00,32,Wunderground v.1.15,2013-07-25 23:20:00,
2013-07-25 19:30:00,66.1,53.6,30.07,ESE,116,0.0,0.0,64,0.00,,,0.00,28,Wunderground v.1.15,2013-07-25 23:30:00,
2013-07-25 19:35:00,66.0,53.0,30.07,ESE,116,0.0,0.0,63,0.00,,,0.00,25,Wunderground v.1.15,2013-07-25 23:35:00,
2013-07-25 19:45:00,65.5,53.4,30.07,ESE,116,0.0,0.0,65,0.00,,,0.00,18,Wunderground v.1.15,2013-07-25 23:45:00,
2013-07-25 19:50:00,65.3,53.6,30.07,ESE,116,0.0,0.0,66,0.00,,,0.00,16,Wunderground v.1.15,2013-07-25 23:50:00,
2013-07-25 20:00:00,64.8,53.6,30.07,ESE,116,0.0,0.0,67,0.00,,,0.00,11,Wunderground v.1.15,2013-07-26 00:00:00,
2013-07-25 20:05:00,64.7,53.9,30.07,ESE,116,0.0,0.0,68,0.00,,,0.00,9,Wunderground v.1.15,2013-07-26 00:05:00,
2013-07-25 20:15:00,64.0,53.6,30.07,ESE,116,0.0,0.0,69,0.00,,,0.00,5,Wunderground v.1.15,2013-07-26 00:15:00,
2013-07-25 20:20:00,63.9,53.9,30.07,ESE,116,0.0,0.0,70,0.00,,,0.00,5,Wunderground v.1.15,2013-07-26 00:20:00,
2013-07-25 20:30:00,63.2,53.6,30.07,ESE,116,0.0,0.0,71,0.00,,,0.00,0,Wunderground v.1.15,2013-07-26 00:30:00,
2013-07-25 20:35:00,62.9,53.4,30.07,ESE,116,0.0,0.0,71,0.00,,,0.00,0,Wunderground v.1.15,2013-07-26 00:35:00,
2013-07-25 20:45:00,62.1,53.7,30.07,ESE,116,0.0,0.0,74,0.00,,,0.00,0,Wunderground v.1.15,2013-07-26 00:45:00,
2013-07-25 20:50:00,62.0,54.0,30.07,ESE,116,0.0,0.0,75,0.00,,,0.00,0,Wunderground v.1.15,2013-07-26 00:50:00,
2013-07-25 21:00:00,61.3,54.4,30.08,ESE,116,0.0,0.0,78,0.00,,,0.00,0,Wunderground v.1.15,2013-07-26 01:00:00,
2013-07-25 21:10:00,61.2,54.3,30.08,ESE,116,0.0,0.0,78,0.00,,,0.00,0,Wunderground v.1.15,2013-07-26 01:10:00,
2013-07-25 21:20:00,61.2,53.9,30.08,SE,140,0.0,0.0,77,0.00,,,0.00,0,Wunderground v.1.15,2013-07-26 01:20:00,
2013-07-25 21:25:00,61.0,54.1,30.08,SE,140,0.0,0.0,78,0.00,,,0.00,0,Wunderground v.1.15,2013-07-26 01:25:00,
2013-07-25 21:35:00,60.9,54.3,30.08,SE,140,0.0,0.0,79,0.00,,,0.00,0,Wunderground v.1.15,2013-07-26 01:35:00,
2013-07-25 21:40:00,60.7,54.1,30.08,SE,140,0.0,0.0,79,0.00,,,0.00,0,Wunderground v.1.15,2013-07-26 01:40:00,
2013-07-25 21:50:00,60.2,54.0,30.08,SE,140,0.0,0.0,80,0.00,,,0.00,0,Wunderground v.1.15,2013-07-26 01:50:00,
2013-07-25 22:00:00,59.8,54.0,30.08,SE,140,0.0,0.0,81,0.00,,,0.00,0,Wunderground v.1.15,2013-07-26 02:00:00,
2013-07-25 22:06:00,59.6,54.1,30.08,SE,140,0.0,0.0,82,0.00,,,0.00,0,Wunderground v.1.15,2013-07-26 02:06:00,
2013-07-25 22:15:00,59.5,54.0,30.08,South,174,0.0,0.0,82,0.00,,,0.00,0,Wunderground v.1.15,2013-07-26 02:15:00,
2013-07-25 22:25:00,59.5,54.0,30.08,South,174,0.0,0.0,82,0.00,,,0.00,0,Wunderground v.1.15,2013-07-26 02:25:00,
2013-07-25 22:35:00,59.2,53.7,30.08,South,190,0.0,0.0,82,0.00,,,0.00,0,Wunderground v.1.15,2013-07-26 02:35:00,
2013-07-25 22:45:00,59.0,53.5,30.07,South,186,0.0,0.0,82,0.00,,,0.00,0,Wunderground v.1.15,2013-07-26 02:45:00,
2013-07-25 22:50:00,59.0,53.5,30.07,South,186,0.0,0.0,82,0.00,,,0.00,0,Wunderground v.1.15,2013-07-26 02:50:00,
2013-07-25 23:00:00,59.0,53.8,30.07,SSW,209,0.0,0.0,83,0.00,,,0.00,0,Wunderground v.1.15,2013-07-26 03:00:00,
2013-07-25 23:10:00,58.9,53.7,30.07,SSW,212,1.0,1.0,83,0.00,,,0.00,0,Wunderground v.1.15,2013-07-26 03:10:00,
2013-07-25 23:20:00,58.7,53.5,30.07,SSW,213,1.0,1.0,83,0.00,,,0.00,0,Wunderground v.1.15,2013-07-26 03:20:00,
2013-07-25 23:25:00,58.6,53.5,30.07,SSW,213,1.0,1.0,83,0.00,,,0.00,0,Wunderground v.1.15,2013-07-26 03:25:00,
2013-07-25 23:35:00,58.4,53.6,30.06,SSW,199,0.0,2.0,84,0.00,,,0.00,0,Wunderground v.1.15,2013-07-26 03:35:00,
2013-07-25 23:40:00,58.3,53.2,30.06,SW,216,1.0,1.0,83,0.00,,,0.00,0,Wunderground v.1.15,2013-07-26 03:40:00,
2013-07-25 23:50:00,58.0,53.2,30.06,SW,216,0.0,0.0,84,0.00,,,0.00,0,Wunderground v.1.15,2013-07-26 03:50:00,